createdAt,value
2023-05-20T00:00:12.207Z,59.42
2023-05-20T00:02:39.249Z,58.48
2023-05-20T00:05:06.691Z,58.75
2023-05-20T00:07:33.948Z,58.37
2023-05-20T00:10:01.146Z,59.09
2023-05-20T00:12:28.033Z,59.23
2023-05-20T00:14:56.147Z,59.82
2023-05-20T00:17:23.399Z,60.01
2023-05-20T00:19:50.380Z,60.58
2023-05-20T00:22:17.444Z,61.28
2023-05-20T00:24:44.358Z,61.25
2023-05-20T00:27:11.438Z,61.26
2023-05-20T00:29:40.826Z,61.43
2023-05-20T00:32:08.104Z,61.01
2023-05-20T00:34:35.021Z,60.92
2023-05-20T00:37:01.924Z,60.94
2023-05-20T00:39:30.533Z,60.01
2023-05-20T00:42:00.855Z,60.49
2023-05-20T00:44:27.846Z,59.73
2023-05-20T00:46:56.236Z,60.34
2023-05-20T00:49:24.051Z,60.45
2023-05-20T00:51:50.952Z,60.49
2023-05-20T00:54:18.101Z,60.66
2023-05-20T00:56:45.106Z,61.24
2023-05-20T00:59:12.847Z,61.01
2023-05-20T01:01:40.729Z,60.96
2023-05-20T01:04:07.760Z,61.41
2023-05-20T01:06:34.770Z,61.64
2023-05-20T01:09:01.564Z,61.52
2023-05-20T01:11:48.973Z,62.83
2023-05-20T01:14:18.105Z,62.42
2023-05-20T01:16:48.447Z,62.36
2023-05-20T01:19:29.980Z,63.49
2023-05-20T01:21:58.148Z,64.00
2023-05-20T01:24:25.030Z,64.66
2023-05-20T01:26:51.985Z,65.98
2023-05-20T01:29:18.971Z,66.86
2023-05-20T01:31:48.158Z,66.52
2023-05-20T01:34:16.390Z,67.49
2023-05-20T01:36:46.778Z,67.59
2023-05-20T01:39:14.620Z,67.42
2023-05-20T01:41:42.344Z,67.70
2023-05-20T01:44:10.174Z,68.17
2023-05-20T01:46:37.193Z,68.63
2023-05-20T01:49:03.962Z,69.47
2023-05-20T01:51:33.794Z,70.84
2023-05-20T01:54:01.297Z,71.87
2023-05-20T01:56:28.181Z,71.39
2023-05-20T01:58:55.277Z,71.46
2023-05-20T02:01:22.416Z,71.89
2023-05-20T02:03:49.425Z,72.14
2023-05-20T02:06:16.472Z,71.77
2023-05-20T02:08:43.629Z,73.93
2023-05-20T02:11:10.452Z,73.98
2023-05-20T02:13:37.471Z,73.53
2023-05-20T02:16:04.794Z,73.13
2023-05-20T02:18:32.922Z,74.92
2023-05-20T02:21:04.285Z,74.63
2023-05-20T02:23:34.992Z,75.63
2023-05-20T02:26:02.502Z,77.45
2023-05-20T02:28:29.621Z,75.63
2023-05-20T02:30:56.453Z,75.23
2023-05-20T02:33:23.304Z,75.67
2023-05-20T02:35:50.095Z,75.13
2023-05-20T02:38:16.983Z,75.32
2023-05-20T02:40:46.596Z,74.68
2023-05-20T02:43:13.585Z,75.02
2023-05-20T02:45:41.308Z,74.74
2023-05-20T02:48:11.122Z,75.10
2023-05-20T02:50:41.055Z,75.63
2023-05-20T02:53:08.139Z,74.82
2023-05-20T02:55:36.295Z,75.34
2023-05-20T02:58:04.089Z,74.78
2023-05-20T03:00:31.725Z,75.63
2023-05-20T03:03:01.584Z,75.28
2023-05-20T03:05:28.587Z,75.74
2023-05-20T03:07:55.722Z,76.08
2023-05-20T03:10:22.720Z,76.10
2023-05-20T03:12:49.571Z,75.51
2023-05-20T03:15:16.818Z,75.71
2023-05-20T03:17:43.665Z,76.02
2023-05-20T03:20:12.777Z,76.06
2023-05-20T03:22:39.654Z,75.73
2023-05-20T03:25:06.780Z,76.48
2023-05-20T03:27:34.604Z,76.25
2023-05-20T03:30:01.893Z,76.35
2023-05-20T03:32:28.719Z,77.22
2023-05-20T03:34:58.342Z,76.79
2023-05-20T03:37:25.448Z,76.84
2023-05-20T03:39:52.384Z,76.20
2023-05-20T03:42:19.213Z,75.43
2023-05-20T03:44:46.131Z,75.93
2023-05-20T03:47:12.992Z,76.06
2023-05-20T03:49:43.068Z,75.56
2023-05-20T03:52:09.855Z,75.13
2023-05-20T03:54:37.063Z,74.59
2023-05-20T03:57:04.087Z,74.48
2023-05-20T03:59:31.352Z,74.86
2023-05-20T04:01:58.318Z,74.74
2023-05-20T04:04:25.121Z,73.93
2023-05-20T04:06:51.932Z,72.90
2023-05-20T04:09:18.990Z,73.41
2023-05-20T04:11:45.910Z,72.23
2023-05-20T04:14:12.899Z,71.60
2023-05-20T04:16:39.871Z,70.53
2023-05-20T04:19:07.522Z,69.49
2023-05-20T04:21:34.332Z,66.45
2023-05-20T04:24:01.165Z,63.81
2023-05-20T04:26:30.260Z,60.89
2023-05-20T04:28:59.251Z,60.18
2023-05-20T04:31:28.899Z,59.78
2023-05-20T04:33:56.906Z,59.66
2023-05-20T04:36:28.851Z,58.71
2023-05-20T04:38:56.278Z,56.86
2023-05-20T04:41:24.280Z,55.40
2023-05-20T04:43:51.229Z,53.03
2023-05-20T04:46:17.976Z,52.66
2023-05-20T04:48:44.785Z,53.49
2023-05-20T04:51:11.661Z,52.77
2023-05-20T04:53:38.881Z,53.18
2023-05-20T04:56:08.527Z,52.74
2023-05-20T04:58:35.582Z,51.13
2023-05-20T05:01:02.942Z,51.64
2023-05-20T05:03:30.177Z,50.61
2023-05-20T05:05:59.951Z,49.28
2023-05-20T05:08:27.163Z,48.59
2023-05-20T05:10:56.066Z,48.37
2023-05-20T05:13:23.333Z,46.58
2023-05-20T05:15:58.792Z,48.01
2023-05-20T05:18:25.874Z,48.51
2023-05-20T05:21:00.480Z,46.51
2023-05-20T05:23:27.528Z,48.11
2023-05-20T05:25:55.091Z,46.96
2023-05-20T05:28:22.089Z,46.04
2023-05-20T05:30:49.371Z,47.11
2023-05-20T05:33:16.498Z,46.77
2023-05-20T05:35:44.164Z,45.65
2023-05-20T05:38:11.148Z,44.35
2023-05-20T05:40:38.137Z,44.67
2023-05-20T05:43:05.279Z,44.08
2023-05-20T05:45:32.465Z,45.57
2023-05-20T05:47:59.741Z,43.63
2023-05-20T05:52:53.768Z,41.56
2023-05-20T05:55:20.727Z,41.01
2023-05-20T05:57:47.778Z,39.36
2023-05-20T06:00:15.454Z,37.40
2023-05-20T06:02:42.480Z,35.50
2023-05-20T06:05:10.650Z,36.47
2023-05-20T06:07:37.608Z,35.34
2023-05-20T06:10:04.847Z,34.16
2023-05-20T06:12:31.742Z,34.95
2023-05-20T06:14:58.721Z,34.19
2023-05-20T06:17:25.835Z,33.59
2023-05-20T06:19:52.894Z,35.09
2023-05-20T06:22:20.043Z,32.97
2023-05-20T06:24:47.085Z,31.21
2023-05-20T06:27:14.096Z,32.24
2023-05-20T06:29:42.455Z,31.76
2023-05-20T06:32:10.645Z,31.05
2023-05-20T06:34:38.100Z,28.91
2023-05-20T06:37:05.237Z,28.08
2023-05-20T06:39:32.172Z,25.55
2023-05-20T06:41:59.169Z,24.24
2023-05-20T06:44:26.529Z,25.53
2023-05-20T06:46:53.471Z,24.03
2023-05-20T06:49:20.513Z,23.68
2023-05-20T06:51:48.767Z,22.67
2023-05-20T06:54:16.112Z,21.68
2023-05-20T06:56:43.153Z,21.21
2023-05-20T06:59:10.138Z,23.56
2023-05-20T07:01:37.339Z,26.84
2023-05-20T07:04:04.518Z,27.12
2023-05-20T07:06:31.865Z,28.26
2023-05-20T07:08:58.894Z,26.75
2023-05-20T07:11:26.162Z,24.62
2023-05-20T07:13:53.738Z,23.92
2023-05-20T07:16:21.083Z,23.36
2023-05-20T07:18:48.291Z,22.54
2023-05-20T07:21:15.188Z,23.63
2023-05-20T07:23:42.513Z,21.91
2023-05-20T07:26:09.592Z,21.80
2023-05-20T07:28:36.861Z,20.78
2023-05-20T07:31:03.817Z,19.13
2023-05-20T07:33:30.982Z,18.13
2023-05-20T07:35:58.074Z,17.68
2023-05-20T07:38:25.224Z,17.00
2023-05-20T07:40:52.121Z,16.51
2023-05-20T07:43:19.009Z,14.88
2023-05-20T07:45:46.027Z,16.08
2023-05-20T07:48:13.494Z,14.91
2023-05-20T07:50:40.649Z,14.61
2023-05-20T07:53:09.789Z,13.86
2023-05-20T07:55:39.928Z,14.96
2023-05-20T07:58:06.786Z,17.95
2023-05-20T08:00:33.657Z,18.25
2023-05-20T08:03:00.848Z,15.11
2023-05-20T08:05:27.962Z,16.53
2023-05-20T08:07:54.804Z,17.08
2023-05-20T08:10:21.809Z,18.74
2023-05-20T08:12:48.726Z,19.29
2023-05-20T08:15:15.949Z,22.81
2023-05-20T08:17:43.042Z,21.41
2023-05-20T08:20:11.182Z,20.87
2023-05-20T08:22:38.268Z,21.62
2023-05-20T08:25:09.461Z,21.33
2023-05-20T08:27:37.776Z,22.87
2023-05-20T08:30:05.740Z,21.35
2023-05-20T08:32:32.588Z,20.24
2023-05-20T08:35:02.055Z,20.96
2023-05-20T08:37:29.969Z,20.37
2023-05-20T08:39:57.136Z,19.92
2023-05-20T08:42:24.766Z,18.62
2023-05-20T08:44:56.879Z,20.56
2023-05-20T08:47:23.974Z,20.11
2023-05-20T08:49:51.064Z,20.48
2023-05-20T08:52:22.675Z,21.90
2023-05-20T08:54:52.154Z,21.16
2023-05-20T08:57:20.591Z,17.48
2023-05-20T08:59:47.694Z,17.17
2023-05-20T09:02:15.508Z,20.26
2023-05-20T09:04:42.633Z,20.43
2023-05-20T09:07:09.900Z,22.85
2023-05-20T09:09:36.894Z,26.69
2023-05-20T09:12:04.221Z,22.85
2023-05-20T09:14:32.158Z,20.24
2023-05-20T09:17:00.286Z,21.89
2023-05-20T09:19:27.395Z,20.51
2023-05-20T09:21:55.561Z,25.02
2023-05-20T09:24:26.759Z,25.90
2023-05-20T09:26:55.213Z,23.14
2023-05-20T09:29:22.214Z,25.71
2023-05-20T09:31:50.036Z,30.31
2023-05-20T09:34:17.808Z,32.94
2023-05-20T09:36:50.910Z,37.08
2023-05-20T09:39:26.304Z,31.10
2023-05-20T09:42:03.968Z,27.22
2023-05-20T09:44:31.980Z,26.22
2023-05-20T09:47:01.289Z,29.49
2023-05-20T09:49:30.541Z,33.15
2023-05-20T09:52:00.284Z,33.19
2023-05-20T09:54:28.804Z,26.74
2023-05-20T09:57:00.082Z,26.34
2023-05-20T09:59:31.934Z,28.70
2023-05-20T10:01:58.939Z,23.94
2023-05-20T10:04:27.765Z,25.19
2023-05-20T10:07:12.114Z,27.66
2023-05-20T10:09:57.726Z,28.45
2023-05-20T10:12:47.774Z,34.48
2023-05-20T10:15:32.573Z,36.65
2023-05-20T10:18:21.490Z,38.66
2023-05-20T10:20:49.941Z,37.81
2023-05-20T10:23:29.045Z,38.03
2023-05-20T10:25:57.779Z,39.29
2023-05-20T10:28:40.549Z,33.48
2023-05-20T10:31:26.655Z,31.15
2023-05-20T10:33:54.375Z,31.02
2023-05-20T10:36:30.857Z,33.26
2023-05-20T10:39:01.065Z,36.34
2023-05-20T10:41:29.427Z,36.06
2023-05-20T10:44:06.894Z,40.03
2023-05-20T10:46:46.347Z,39.75
2023-05-20T10:49:26.129Z,39.55
2023-05-20T10:51:54.724Z,39.21
2023-05-20T10:54:23.544Z,39.92
2023-05-20T10:56:54.610Z,40.01
2023-05-20T10:59:25.041Z,39.06
2023-05-20T11:01:52.229Z,38.64
2023-05-20T11:04:19.984Z,38.73
2023-05-20T11:06:52.255Z,41.74
2023-05-20T11:09:19.247Z,42.91
2023-05-20T11:11:46.183Z,43.03
2023-05-20T11:14:16.670Z,37.32
2023-05-20T11:16:44.424Z,35.84
2023-05-20T11:19:19.245Z,36.88
2023-05-20T11:21:46.736Z,39.48
2023-05-20T11:24:14.385Z,40.81
2023-05-20T11:26:41.544Z,42.16
2023-05-20T11:29:08.884Z,43.49
2023-05-20T11:31:39.685Z,41.37
2023-05-20T11:34:06.607Z,41.63
2023-05-20T11:36:33.710Z,41.33
2023-05-20T11:39:01.173Z,41.06
2023-05-20T11:41:29.130Z,42.06
2023-05-20T11:44:00.181Z,41.89
2023-05-20T11:46:28.163Z,42.67
2023-05-20T11:48:56.255Z,44.62
2023-05-20T11:51:32.655Z,46.46
2023-05-20T11:54:01.745Z,48.02
2023-05-20T11:56:33.945Z,46.65
2023-05-20T11:59:01.803Z,44.96
2023-05-20T12:01:43.537Z,44.02
2023-05-20T12:04:11.110Z,44.45
2023-05-20T12:06:38.482Z,44.91
2023-05-20T12:09:07.556Z,45.55
2023-05-20T12:11:36.082Z,46.17
2023-05-20T12:14:04.364Z,46.49
2023-05-20T12:16:33.636Z,46.03
2023-05-20T12:19:01.166Z,45.90
2023-05-20T12:21:31.747Z,45.25
2023-05-20T12:24:01.959Z,45.57
2023-05-20T12:26:30.201Z,47.15
2023-05-20T12:28:57.789Z,47.22
2023-05-20T12:31:25.971Z,47.96
2023-05-20T12:33:56.370Z,47.61
2023-05-20T12:36:23.438Z,47.91
2023-05-20T12:38:50.524Z,48.60
2023-05-20T12:41:17.537Z,46.19
2023-05-20T12:43:44.695Z,48.32
2023-05-20T12:46:11.990Z,45.91
2023-05-20T12:48:39.995Z,44.55
2023-05-20T12:51:08.821Z,45.16
2023-05-20T12:53:36.261Z,44.30
2023-05-20T12:56:03.828Z,45.57
2023-05-20T12:58:31.280Z,47.37
2023-05-20T13:00:58.411Z,44.75
2023-05-20T13:03:25.656Z,45.77
2023-05-20T13:05:52.819Z,46.66
2023-05-20T13:08:19.675Z,48.74
2023-05-20T13:10:46.604Z,47.65
2023-05-20T13:13:14.174Z,46.36
2023-05-20T13:15:41.606Z,46.41
2023-05-20T13:18:08.657Z,46.95
2023-05-20T13:20:35.897Z,47.46
2023-05-20T13:23:03.256Z,47.08
2023-05-20T13:25:31.961Z,46.64
2023-05-20T13:27:58.887Z,46.16
2023-05-20T13:30:25.994Z,45.97
2023-05-20T13:32:52.965Z,45.03
2023-05-20T13:35:20.120Z,46.25
2023-05-20T13:37:47.247Z,45.79
2023-05-20T13:40:14.406Z,47.36
2023-05-20T13:42:41.530Z,47.59
2023-05-20T13:45:08.762Z,45.92
2023-05-20T13:47:36.567Z,46.98
2023-05-20T13:50:04.308Z,46.86
2023-05-20T13:52:31.201Z,47.89
2023-05-20T13:54:58.375Z,49.96
2023-05-20T13:57:25.478Z,50.07
2023-05-20T13:59:52.623Z,49.84
2023-05-20T14:02:26.271Z,47.37
2023-05-20T14:04:53.360Z,48.13
2023-05-20T14:07:20.296Z,50.61
2023-05-20T14:09:47.090Z,49.74
2023-05-20T14:12:14.338Z,50.73
2023-05-20T14:14:41.439Z,51.14
2023-05-20T14:17:08.365Z,49.07
2023-05-20T14:19:35.401Z,48.29
2023-05-20T14:22:03.553Z,47.18
2023-05-20T14:24:30.518Z,47.28
2023-05-20T14:26:57.617Z,49.22
2023-05-20T14:29:24.877Z,50.63
2023-05-20T14:31:52.037Z,51.45
2023-05-20T14:34:18.953Z,51.82
2023-05-20T14:36:46.179Z,50.55
2023-05-20T14:39:12.979Z,51.12
2023-05-20T14:41:42.409Z,50.77
2023-05-20T14:44:09.318Z,49.85
2023-05-20T14:46:36.729Z,50.65
2023-05-20T14:49:03.588Z,50.98
2023-05-20T14:51:30.523Z,49.97
2023-05-20T14:53:57.707Z,50.25
2023-05-20T14:56:24.704Z,50.21
2023-05-20T14:58:51.663Z,49.55
2023-05-20T15:01:19.482Z,50.14
2023-05-20T15:03:46.488Z,49.86
2023-05-20T15:06:13.664Z,50.66
2023-05-20T15:08:40.530Z,53.15
2023-05-20T15:11:07.385Z,52.51
2023-05-20T15:13:34.333Z,52.75
2023-05-20T15:16:01.626Z,52.57
2023-05-20T15:18:28.870Z,51.67
2023-05-20T15:20:55.804Z,51.78
2023-05-20T15:23:22.658Z,52.33
2023-05-20T15:25:50.892Z,53.19
2023-05-20T15:28:19.858Z,52.06
2023-05-20T15:30:54.052Z,51.96
2023-05-20T15:33:21.699Z,50.90
2023-05-20T15:35:49.383Z,51.01
2023-05-20T15:38:18.690Z,52.38
2023-05-20T15:40:45.701Z,52.41
2023-05-20T15:43:12.862Z,52.15
2023-05-20T15:45:39.997Z,51.20
2023-05-20T15:48:07.192Z,50.84
2023-05-20T15:50:36.411Z,52.17
2023-05-20T15:53:06.713Z,52.28
2023-05-20T15:55:33.599Z,51.84
2023-05-20T15:58:00.463Z,53.29
2023-05-20T16:00:27.779Z,51.90
2023-05-20T16:02:55.651Z,52.97
2023-05-20T16:05:25.659Z,52.88
2023-05-20T16:07:53.748Z,51.95
2023-05-20T16:10:20.810Z,52.38
2023-05-20T16:12:47.690Z,51.52
2023-05-20T16:15:15.109Z,52.09
2023-05-20T16:17:42.197Z,53.58
2023-05-20T16:20:09.465Z,53.91
2023-05-20T16:22:37.114Z,53.73
2023-05-20T16:25:04.593Z,53.39
2023-05-20T16:27:32.264Z,52.75
2023-05-20T16:29:59.173Z,53.89
2023-05-20T16:32:27.320Z,53.66
2023-05-20T16:34:55.155Z,53.56
2023-05-20T16:37:21.995Z,54.83
2023-05-20T16:39:49.166Z,55.05
2023-05-20T16:42:16.313Z,55.38
2023-05-20T16:44:43.335Z,54.86
2023-05-20T16:47:10.321Z,55.86
2023-05-20T16:49:37.480Z,56.17
2023-05-20T16:52:04.792Z,56.03
2023-05-20T16:54:32.899Z,56.39
2023-05-20T16:56:59.894Z,55.17
2023-05-20T16:59:29.158Z,55.47
2023-05-20T17:01:56.438Z,55.14
2023-05-20T17:04:23.998Z,55.66
2023-05-20T17:06:51.508Z,55.71
2023-05-20T17:09:18.702Z,56.12
2023-05-20T17:11:45.706Z,56.15
2023-05-20T17:14:12.531Z,56.71
2023-05-20T17:16:39.445Z,56.86
2023-05-20T17:19:06.385Z,57.69
2023-05-20T17:21:34.685Z,56.75
2023-05-20T17:24:01.766Z,57.72
2023-05-20T17:26:28.759Z,57.82
2023-05-20T17:28:56.197Z,57.36
2023-05-20T17:31:23.229Z,57.94
2023-05-20T17:33:50.349Z,57.84
2023-05-20T17:36:17.968Z,57.13
2023-05-20T17:38:44.971Z,57.30
2023-05-20T17:41:12.085Z,57.73
2023-05-20T17:43:38.993Z,57.43
2023-05-20T17:46:06.149Z,57.45
2023-05-20T17:48:37.001Z,58.12
2023-05-20T17:51:04.690Z,58.29
2023-05-20T17:53:31.471Z,58.13
2023-05-20T17:55:58.512Z,58.44
2023-05-20T17:58:26.955Z,58.61
2023-05-20T18:00:53.904Z,58.31
2023-05-20T18:03:23.127Z,59.59
2023-05-20T18:05:50.356Z,59.15
2023-05-20T18:08:19.223Z,59.57
2023-05-20T18:10:46.357Z,59.42
2023-05-20T18:13:13.440Z,59.69
2023-05-20T18:15:40.420Z,59.91
2023-05-20T18:18:07.462Z,59.50
2023-05-20T18:20:34.416Z,59.06
2023-05-20T18:23:01.309Z,59.14
2023-05-20T18:25:28.205Z,59.24
2023-05-20T18:27:55.022Z,59.04
2023-05-20T18:30:24.016Z,59.20
2023-05-20T18:32:51.884Z,59.15
2023-05-20T18:35:19.317Z,58.78
2023-05-20T18:37:46.285Z,58.80
2023-05-20T18:40:13.521Z,58.15
2023-05-20T18:42:40.889Z,59.93
2023-05-20T18:45:08.344Z,59.58
2023-05-20T18:47:35.264Z,59.99
2023-05-20T18:50:02.167Z,60.00
2023-05-20T18:52:29.283Z,59.48
2023-05-20T18:54:56.332Z,59.39
2023-05-20T18:57:23.226Z,59.11
2023-05-20T18:59:50.142Z,59.43
2023-05-20T19:02:17.471Z,58.57
2023-05-20T19:04:44.400Z,58.52
2023-05-20T19:07:12.078Z,58.85
2023-05-20T19:09:38.995Z,58.93
2023-05-20T19:12:06.994Z,59.62
2023-05-20T19:14:34.006Z,58.92
2023-05-20T19:17:01.331Z,59.23
2023-05-20T19:19:28.677Z,59.42
2023-05-20T19:21:55.816Z,59.51
2023-05-20T19:24:22.671Z,59.71
2023-05-20T19:26:49.897Z,60.16
2023-05-20T19:29:16.841Z,60.19
2023-05-20T19:31:43.835Z,59.54
2023-05-20T19:34:10.925Z,59.50
2023-05-20T19:36:38.699Z,60.43
2023-05-20T19:39:05.694Z,61.70
2023-05-20T19:41:32.712Z,60.55
2023-05-20T19:44:00.177Z,60.59
2023-05-20T19:46:27.290Z,61.52
2023-05-20T19:48:54.244Z,61.34
2023-05-20T19:51:21.336Z,61.40
2023-05-20T19:53:48.510Z,61.38
2023-05-20T19:56:19.554Z,61.60
2023-05-20T19:58:46.532Z,61.73
2023-05-20T20:01:13.723Z,61.91
2023-05-20T20:03:42.097Z,62.08
2023-05-20T20:06:10.620Z,61.63
2023-05-20T20:08:41.906Z,61.23
2023-05-20T20:11:09.414Z,61.12
2023-05-20T20:13:39.230Z,61.33
2023-05-20T20:16:06.334Z,61.87
2023-05-20T20:18:33.452Z,61.65
2023-05-20T20:21:00.656Z,61.85
2023-05-20T20:23:27.779Z,62.89
2023-05-20T20:25:54.645Z,62.63
2023-05-20T20:28:21.788Z,62.79
2023-05-20T20:30:48.687Z,62.15
2023-05-20T20:33:15.682Z,62.54
2023-05-20T20:35:43.115Z,62.00
2023-05-20T20:38:10.416Z,61.84
2023-05-20T20:40:44.990Z,62.09
2023-05-20T20:43:20.514Z,62.20
2023-05-20T20:45:48.271Z,61.77
2023-05-20T20:48:19.033Z,61.58
2023-05-20T20:50:48.328Z,61.16
2023-05-20T20:53:18.245Z,61.23
2023-05-20T20:55:46.422Z,61.68
2023-05-20T20:58:15.635Z,62.11
2023-05-20T21:00:45.229Z,62.38
2023-05-20T21:03:13.614Z,63.05
2023-05-20T21:05:40.863Z,62.28
2023-05-20T21:08:08.695Z,62.54
2023-05-20T21:10:37.320Z,62.85
2023-05-20T21:13:04.470Z,62.81
2023-05-20T21:15:31.518Z,63.74
2023-05-20T21:17:58.722Z,62.90
2023-05-20T21:20:25.776Z,62.54
2023-05-20T21:22:52.903Z,62.87
2023-05-20T21:25:19.853Z,63.11
2023-05-20T21:27:46.955Z,63.37
2023-05-20T21:30:16.088Z,64.54
2023-05-20T21:32:43.147Z,64.42
2023-05-20T21:35:10.238Z,64.20
2023-05-20T21:37:37.091Z,63.52
2023-05-20T21:40:04.293Z,63.54
2023-05-20T21:42:31.260Z,63.57
2023-05-20T21:44:58.233Z,63.81
2023-05-20T21:47:25.222Z,65.04
2023-05-20T21:49:52.222Z,64.46
2023-05-20T21:52:20.148Z,64.41
2023-05-20T21:54:47.084Z,65.61
2023-05-20T21:57:14.363Z,65.81
2023-05-20T21:59:41.359Z,65.32
2023-05-20T22:02:08.339Z,65.74
2023-05-20T22:04:35.215Z,65.46
2023-05-20T22:07:02.204Z,64.67
2023-05-20T22:09:30.116Z,65.53
2023-05-20T22:11:57.216Z,65.47
2023-05-20T22:14:24.194Z,65.21
2023-05-20T22:16:51.295Z,66.49
2023-05-20T22:19:18.357Z,66.32
2023-05-20T22:21:50.760Z,66.13
2023-05-20T22:24:18.527Z,65.98
2023-05-20T22:26:45.556Z,66.49
2023-05-20T22:29:12.557Z,66.04
2023-05-20T22:31:39.746Z,67.62
2023-05-20T22:34:06.641Z,67.27
2023-05-20T22:36:37.630Z,67.14
2023-05-20T22:39:06.970Z,66.21
2023-05-20T22:41:34.233Z,66.90
2023-05-20T22:44:01.236Z,67.60
2023-05-20T22:46:28.796Z,66.59
2023-05-20T22:48:58.489Z,67.20
2023-05-20T22:51:26.682Z,67.29
2023-05-20T22:53:53.561Z,66.87
2023-05-20T22:56:21.471Z,67.30
2023-05-20T22:58:50.960Z,67.35
2023-05-20T23:01:18.393Z,68.12
2023-05-20T23:03:46.988Z,68.38
2023-05-20T23:06:16.460Z,67.89
2023-05-20T23:08:44.815Z,68.93
2023-05-20T23:11:11.540Z,68.57
2023-05-20T23:13:38.926Z,69.06
2023-05-20T23:16:06.740Z,67.60
2023-05-20T23:18:33.876Z,68.61
2023-05-20T23:21:00.833Z,68.14
2023-05-20T23:23:31.719Z,68.43
2023-05-20T23:25:59.741Z,67.30
2023-05-20T23:28:26.750Z,68.04
2023-05-20T23:30:54.905Z,67.63
2023-05-20T23:33:25.409Z,68.15
2023-05-20T23:35:53.389Z,68.51
2023-05-20T23:38:20.406Z,68.41
2023-05-20T23:40:48.362Z,68.80
2023-05-20T23:43:15.587Z,68.55
2023-05-20T23:45:42.581Z,68.84
2023-05-20T23:48:13.683Z,68.46
2023-05-20T23:50:44.473Z,69.20
2023-05-20T23:53:11.330Z,68.44
2023-05-20T23:55:38.671Z,69.54
2023-05-20T23:58:05.794Z,68.85
